Hillsdale, MI

10:30 PM EST on November 11, 2019 (GMT -0500)
Hillsdale Municipal

Weather History for KJYM - September, 2019

Change the Weather History Date:

Wednesday, September 18, 2019

  Actual Average Record
Temperature  
Mean Temperature 66 °F -  
Max Temperature 78 °F 71 °F 91 °F (1955)
Min Temperature 54 °F 50 °F 33 °F (1959)
Cooling Degree Days 1    
Growing Degree Days 16 (Base 50)    
Moisture  
Dew Point 55 °F    
Average Humidity 70    
Maximum Humidity 94    
Minimum Humidity 42    
Precipitation  
Precipitation 0.00 in - - ()
Sea Level Pressure  
Sea Level Pressure 30.18 in    
Wind  
Wind Speed 5 mph ()    
Max Wind Speed 13 mph    
Max Gust Speed 16 mph    
Visibility 10.0 miles    
Events      
Averages and records for this station are not official NWS values.
T = Trace of Precipitation, MM = Missing Value Source: Averaged Metar Reports

Daily Weather History Graph

Daily Weather History Graph

Search for Another Location

Airport or City:

Astronomy

Sep. 18, 2019 Rise Set
Actual Time 7:21 AM EDT 7:42 PM EDT
Civil Twilight 6:53 AM EDT 8:10 PM EDT
Nautical Twilight 6:20 AM EDT 8:43 PM EDT
Astronomical Twilight 5:46 AM EDT 9:17 PM EDT
Moon 10:12 PM EDT (9/18) 11:27 AM EDT (9/18)
Length of Visible Light 13h 17m
Length of Day
12h 21m
Waning Gibbous, 82% of the Moon is Illuminated
Sep 18
Waning Gibbous
Sep 21
Last Quarter
Sep 28
New
Oct 5
First Quarter
Oct 13
Full

Hourly Weather History & Observations

Time (EDT) Temp. Dew Point Humidity Pressure Visibility Wind Dir Wind Speed Gust Speed Precip Events Conditions
12:17 AM 61.3 °F 59.2 °F 93% 30.18 in 10.0 mi ESE 3.5 mph - N/A   Clear
12:35 AM 60.4 °F 58.5 °F 93% 30.18 in 10.0 mi ESE 3.5 mph - N/A   Clear
12:55 AM 60.3 °F 58.1 °F 93% 30.18 in 10.0 mi ESE 4.6 mph - N/A   Clear
1:15 AM 60.3 °F 56.8 °F 88% 30.18 in 10.0 mi East 4.6 mph - N/A   Clear
1:20 AM 60.3 °F 56.3 °F 87% 30.18 in 10.0 mi East 5.8 mph - N/A   Scattered Clouds
1:38 AM 59.5 °F 55.2 °F 86% 30.19 in 10.0 mi East 4.6 mph - N/A   Mostly Cloudy
1:56 AM 58.5 °F 54.1 °F 86% 30.19 in 10.0 mi East 3.5 mph - N/A   Mostly Cloudy
2:15 AM 57.4 °F 53.4 °F 87% 30.19 in 10.0 mi East 4.6 mph - N/A   Mostly Cloudy
2:16 AM 57.4 °F 53.4 °F 87% 30.18 in 10.0 mi East 4.6 mph - N/A   Mostly Cloudy
2:35 AM 57.7 °F 53.6 °F 86% 30.19 in 10.0 mi East 3.5 mph - N/A   Scattered Clouds
2:36 AM 57.7 °F 53.6 °F 86% 30.19 in 10.0 mi East 3.5 mph - N/A   Scattered Clouds
2:59 AM 56.3 °F 52.9 °F 88% 30.18 in 10.0 mi East 4.6 mph - N/A   Scattered Clouds
3:17 AM 55.4 °F 52.7 °F 91% 30.18 in 10.0 mi East 4.6 mph - N/A   Scattered Clouds
3:35 AM 56.1 °F 52.9 °F 89% 30.18 in 10.0 mi East 3.5 mph - N/A   Scattered Clouds
3:55 AM 56.1 °F 52.7 °F 88% 30.18 in 10.0 mi Calm Calm - N/A   Clear
4:15 AM 57.7 °F 53.4 °F 85% 30.18 in 10.0 mi Calm Calm - N/A   Clear
4:38 AM 55.8 °F 52.9 °F 90% 30.18 in 10.0 mi Calm Calm - N/A   Clear
4:56 AM 55.6 °F 53.2 °F 92% 30.17 in 10.0 mi Calm Calm - N/A   Clear
5:15 AM 54.5 °F 52.7 °F 94% 30.17 in 10.0 mi Calm Calm - N/A   Clear
5:35 AM 54.7 °F 52.7 °F 93% 30.17 in 10.0 mi East 3.5 mph - N/A   Clear
5:59 AM 55.8 °F 54.0 °F 94% 30.18 in 10.0 mi East 4.6 mph - N/A   Clear
6:17 AM 56.3 °F 54.5 °F 94% 30.18 in 10.0 mi East 5.8 mph - N/A   Clear
6:35 AM 57.6 °F 55.6 °F 93% 30.17 in 10.0 mi East 4.6 mph - N/A   Clear
6:55 AM 58.3 °F 56.1 °F 93% 30.17 in 10.0 mi East 4.6 mph - N/A   Clear
7:15 AM 58.1 °F 55.9 °F 93% 30.17 in 10.0 mi East 3.5 mph - N/A   Clear
7:38 AM 58.1 °F 56.1 °F 93% 30.18 in 10.0 mi ESE 3.5 mph - N/A   Clear
7:56 AM 59.0 °F 57.2 °F 94% 30.18 in 10.0 mi East 3.5 mph - N/A   Clear
8:15 AM 59.9 °F 57.9 °F 93% 30.18 in 10.0 mi East 3.5 mph - N/A   Clear
8:35 AM 61.5 °F 59.0 °F 91% 30.19 in 10.0 mi East 4.6 mph - N/A   Clear
8:59 AM 63.3 °F 59.9 °F 89% 30.19 in 10.0 mi ESE 6.9 mph - N/A   Clear
9:17 AM 64.6 °F 59.9 °F 85% 30.18 in 10.0 mi ESE 5.8 mph - N/A   Clear
9:35 AM 65.3 °F 59.2 °F 81% 30.18 in 10.0 mi SE 6.9 mph - N/A   Clear
9:36 AM 65.5 °F 59.2 °F 80% 30.18 in 10.0 mi SE 6.9 mph - N/A   Clear
9:55 AM 66.6 °F 59.0 °F 77% 30.19 in 10.0 mi East 8.1 mph - N/A   Clear
10:15 AM 68.0 °F 58.6 °F 72% 30.19 in 10.0 mi ESE 5.8 mph - N/A   Clear
10:38 AM 69.3 °F 57.9 °F 67% 30.20 in 10.0 mi SE 8.1 mph - N/A   Clear
10:56 AM 69.4 °F 57.2 °F 65% 30.20 in 10.0 mi East 6.9 mph - N/A   Clear
11:15 AM 70.9 °F 56.7 °F 61% 30.20 in 10.0 mi ESE 5.8 mph - N/A   Clear
11:35 AM 72.1 °F 56.5 °F 58% 30.20 in 10.0 mi ESE 9.2 mph - N/A   Clear
11:40 AM 72.5 °F 56.3 °F 57% 30.20 in 10.0 mi ESE 5.8 mph 9.2 mph N/A   Clear
11:58 AM 73.6 °F 55.0 °F 52% 30.21 in 10.0 mi ESE 12.7 mph - N/A   Clear
12:16 PM 74.8 °F 55.2 °F 50% 30.21 in 10.0 mi SE 8.1 mph - N/A   Clear
12:35 PM 75.2 °F 53.6 °F 47% 30.21 in 10.0 mi SE 5.8 mph - N/A   Clear
12:36 PM 75.2 °F 53.8 °F 47% 30.21 in 10.0 mi SE 6.9 mph - N/A   Clear
12:55 PM 75.6 °F 53.1 °F 45% 30.21 in 10.0 mi ESE 9.2 mph - N/A   Clear
12:56 PM 75.6 °F 53.1 °F 45% 30.21 in 10.0 mi ESE 9.2 mph - N/A   Clear
1:19 PM 75.9 °F 53.1 °F 45% 30.21 in 10.0 mi ESE 9.2 mph - N/A   Clear
1:37 PM 76.6 °F 54.9 °F 47% 30.21 in 10.0 mi ESE 6.9 mph - N/A   Clear
1:55 PM 77.5 °F 53.6 °F 43% 30.21 in 10.0 mi SE 8.1 mph - N/A   Clear
2:15 PM 77.0 °F 52.5 °F 42% 30.20 in 10.0 mi SE 6.9 mph - N/A   Clear
2:16 PM 77.0 °F 52.3 °F 42% 30.20 in 10.0 mi SE 5.8 mph - N/A   Clear
2:35 PM 77.9 °F 53.1 °F 42% 30.20 in 10.0 mi ESE 9.2 mph - N/A   Clear
2:58 PM 78.1 °F 54.0 °F 43% 30.19 in 10.0 mi ESE 8.1 mph - N/A   Clear
3:16 PM 77.4 °F 53.2 °F 43% 30.19 in 10.0 mi East 9.2 mph - N/A   Clear
3:35 PM 78.3 °F 53.4 °F 42% 30.19 in 10.0 mi ESE 3.5 mph - N/A   Clear
3:36 PM 78.3 °F 53.4 °F 42% 30.19 in 10.0 mi SE 5.8 mph - N/A   Clear
3:55 PM 78.3 °F 53.2 °F 42% 30.18 in 10.0 mi East 5.8 mph - N/A   Clear
3:56 PM 78.3 °F 53.2 °F 42% 30.18 in 10.0 mi ESE 4.6 mph - N/A   Clear
4:19 PM 77.2 °F 52.2 °F 42% 30.18 in 10.0 mi ESE 5.8 mph - N/A   Clear
4:37 PM 75.0 °F 53.1 °F 46% 30.18 in 10.0 mi ESE 3.5 mph - N/A   Clear
4:55 PM 77.0 °F 53.4 °F 44% 30.17 in 10.0 mi East 5.8 mph - N/A   Clear
4:56 PM 77.2 °F 53.8 °F 44% 30.17 in 10.0 mi East 5.8 mph - N/A   Clear
5:15 PM 77.0 °F 56.7 °F 49% 30.17 in 10.0 mi East 6.9 mph - N/A   Clear
5:16 PM 77.2 °F 56.8 °F 49% 30.17 in 10.0 mi East 8.1 mph - N/A   Clear
5:35 PM 76.3 °F 55.9 °F 49% 30.16 in 10.0 mi East 9.2 mph - N/A   Clear
5:58 PM 75.6 °F 56.1 °F 51% 30.16 in 10.0 mi ESE 6.9 mph - N/A   Clear
6:16 PM 74.7 °F 55.9 °F 52% 30.16 in 10.0 mi East 8.1 mph - N/A   Clear
6:35 PM 73.6 °F 56.1 °F 54% 30.16 in 10.0 mi East 8.1 mph - N/A   Clear
6:36 PM 73.4 °F 55.9 °F 54% 30.16 in 10.0 mi East 8.1 mph - N/A   Clear
6:56 PM 71.8 °F 54.5 °F 54% 30.16 in 10.0 mi East 10.4 mph 16.1 mph N/A   Clear
7:19 PM 69.8 °F 53.6 °F 56% 30.16 in 10.0 mi East 8.1 mph - N/A   Clear
7:37 PM 68.2 °F 54.0 °F 60% 30.17 in 10.0 mi East 6.9 mph - N/A   Clear
7:55 PM 66.2 °F 54.5 °F 66% 30.17 in 10.0 mi East 5.8 mph - N/A   Clear
8:15 PM 65.1 °F 54.5 °F 68% 30.17 in 10.0 mi East 5.8 mph - N/A   Clear
8:35 PM 62.8 °F 54.5 °F 74% 30.18 in 10.0 mi East 4.6 mph - N/A   Scattered Clouds
8:58 PM 63.3 °F 54.7 °F 73% 30.17 in 10.0 mi East 6.9 mph - N/A   Scattered Clouds
9:16 PM 64.0 °F 54.1 °F 70% 30.18 in 10.0 mi East 9.2 mph - N/A   Scattered Clouds
9:35 PM 63.5 °F 55.4 °F 75% 30.18 in 10.0 mi East 8.1 mph - N/A   Mostly Cloudy
9:36 PM 63.5 °F 55.4 °F 75% 30.18 in 10.0 mi East 9.2 mph - N/A   Mostly Cloudy
9:55 PM 63.3 °F 56.7 °F 79% 30.18 in 10.0 mi East 9.2 mph - N/A   Mostly Cloudy
9:56 PM 63.3 °F 56.7 °F 79% 30.18 in 10.0 mi East 8.1 mph - N/A   Mostly Cloudy
10:15 PM 63.3 °F 57.2 °F 80% 30.18 in 10.0 mi East 10.4 mph - N/A   Mostly Cloudy
10:20 PM 63.1 °F 57.2 °F 81% 30.17 in 10.0 mi East 9.2 mph - N/A   Mostly Cloudy
10:38 PM 63.0 °F 57.2 °F 81% 30.17 in 10.0 mi ESE 9.2 mph - N/A   Mostly Cloudy
10:56 PM 63.1 °F 57.4 °F 81% 30.17 in 10.0 mi ESE 10.4 mph - N/A   Mostly Cloudy
11:15 PM 62.8 °F 57.6 °F 83% 30.18 in 10.0 mi ESE 9.2 mph - N/A   Mostly Cloudy
11:35 PM 62.6 °F 57.6 °F 84% 30.17 in 10.0 mi ESE 6.9 mph - N/A   Mostly Cloudy
11:36 PM 62.6 °F 57.6 °F 84% 30.17 in 10.0 mi ESE 6.9 mph - N/A   Mostly Cloudy
11:59 PM 62.2 °F 57.7 °F 85% 30.17 in 10.0 mi ESE 5.8 mph - N/A   Mostly Cloudy